createdAt,value
2019-01-23T00:00:29.690Z,25.50
2019-01-23T00:01:29.619Z,25.50
2019-01-23T00:02:29.549Z,25.90
2019-01-23T00:03:29.479Z,26.50
2019-01-23T00:04:29.405Z,25.60
2019-01-23T00:05:29.334Z,25.90
2019-01-23T00:06:29.266Z,24.10
2019-01-23T00:07:29.193Z,25.70
2019-01-23T00:08:29.121Z,25.30
2019-01-23T00:09:29.052Z,25.90
2019-01-23T00:10:28.981Z,25.70
2019-01-23T00:11:28.919Z,24.20
2019-01-23T00:12:28.839Z,24.30
2019-01-23T00:13:28.768Z,23.60
2019-01-23T00:14:28.697Z,24.50
2019-01-23T00:15:28.625Z,25.50
2019-01-23T00:16:28.554Z,25.80
2019-01-23T00:17:28.483Z,25.30
2019-01-23T00:18:29.306Z,24.70
2019-01-23T00:19:28.381Z,23.40
2019-01-23T00:20:28.270Z,25.00
2019-01-23T00:21:28.198Z,24.00
2019-01-23T00:22:28.131Z,25.20
2019-01-23T00:23:28.059Z,25.40
2019-01-23T00:24:27.987Z,25.00
2019-01-23T00:25:27.915Z,24.10
2019-01-23T00:26:27.861Z,24.30
2019-01-23T00:27:27.777Z,24.80
2019-01-23T00:28:27.703Z,24.80
2019-01-23T00:29:27.650Z,25.40
2019-01-23T00:30:27.565Z,25.40
2019-01-23T00:31:27.492Z,24.70
2019-01-23T00:32:27.420Z,25.20
2019-01-23T00:33:27.347Z,25.10
2019-01-23T00:34:27.277Z,24.20
2019-01-23T00:35:27.208Z,25.00
2019-01-23T00:36:27.135Z,24.70
2019-01-23T00:37:27.071Z,25.00
2019-01-23T00:38:26.993Z,23.90
2019-01-23T00:39:26.927Z,26.20
2019-01-23T00:40:26.855Z,24.80
2019-01-23T00:41:26.780Z,25.50
2019-01-23T00:42:26.712Z,25.70
2019-01-23T00:43:26.641Z,25.50
2019-01-23T00:44:26.569Z,25.30
2019-01-23T00:45:26.498Z,24.40
2019-01-23T00:46:26.428Z,25.40
2019-01-23T00:47:26.360Z,25.10
2019-01-23T00:48:26.286Z,25.10
2019-01-23T00:49:26.212Z,25.30
2019-01-23T00:50:26.148Z,25.10
2019-01-23T00:51:26.076Z,24.20
2019-01-23T00:52:26.003Z,25.40
2019-01-23T00:53:25.933Z,25.30
2019-01-23T00:54:25.861Z,24.80
2019-01-23T00:55:25.790Z,25.10
2019-01-23T00:56:25.719Z,25.20
2019-01-23T00:57:25.649Z,25.20
2019-01-23T00:58:25.576Z,25.10
2019-01-23T00:59:25.555Z,27.30
2019-01-23T01:00:25.435Z,25.80
2019-01-23T01:01:25.367Z,26.50
2019-01-23T01:02:25.294Z,25.30
2019-01-23T01:03:25.220Z,27.10
2019-01-23T01:04:25.151Z,26.50
2019-01-23T01:05:25.081Z,25.90
2019-01-23T01:06:25.014Z,26.40
2019-01-23T01:07:24.935Z,27.90
2019-01-23T01:08:24.870Z,26.60
2019-01-23T01:09:24.806Z,28.20
2019-01-23T01:10:24.744Z,27.10
2019-01-23T01:11:24.657Z,26.90
2019-01-23T01:12:24.585Z,26.60
2019-01-23T01:13:24.513Z,27.00
2019-01-23T01:14:24.451Z,25.90
2019-01-23T01:15:24.374Z,26.60
2019-01-23T01:16:24.301Z,26.30
2019-01-23T01:17:24.231Z,25.70
2019-01-23T01:18:24.163Z,26.90
2019-01-23T01:19:24.088Z,25.10
2019-01-23T01:20:24.017Z,26.10
2019-01-23T01:21:23.947Z,26.50
2019-01-23T01:22:23.881Z,25.50
2019-01-23T01:23:23.801Z,25.60
2019-01-23T01:24:23.736Z,25.30
2019-01-23T01:25:23.663Z,26.20
2019-01-23T01:26:23.591Z,27.30
2019-01-23T01:27:23.518Z,27.00
2019-01-23T01:28:23.448Z,26.40
2019-01-23T01:29:23.383Z,27.10
2019-01-23T01:30:23.305Z,27.90
2019-01-23T01:31:23.237Z,26.60
2019-01-23T01:32:23.166Z,26.60
2019-01-23T01:33:23.096Z,26.80
2019-01-23T01:34:23.025Z,27.70
2019-01-23T01:35:22.954Z,26.80
2019-01-23T01:36:22.883Z,26.90
2019-01-23T01:37:22.814Z,27.10
2019-01-23T01:38:22.739Z,27.20
2019-01-23T01:39:22.669Z,27.50
2019-01-23T01:40:22.601Z,27.80
2019-01-23T01:41:22.525Z,28.90
2019-01-23T01:42:22.456Z,27.70
2019-01-23T01:43:22.382Z,27.90
2019-01-23T01:44:22.314Z,27.20
2019-01-23T01:45:22.247Z,26.60
2019-01-23T01:46:22.172Z,25.20
2019-01-23T01:47:22.105Z,28.30
2019-01-23T01:48:22.026Z,25.50
2019-01-23T01:49:21.959Z,27.80
2019-01-23T01:50:21.889Z,27.60
2019-01-23T01:51:21.820Z,27.50
2019-01-23T01:52:21.749Z,26.40
2019-01-23T01:53:21.675Z,27.00
2019-01-23T01:54:21.606Z,27.10
2019-01-23T01:55:21.534Z,27.90
2019-01-23T01:56:21.464Z,27.40
2019-01-23T01:57:21.394Z,27.70
2019-01-23T01:58:21.321Z,26.40
2019-01-23T01:59:21.253Z,27.80
2019-01-23T02:00:21.180Z,27.10
2019-01-23T02:01:21.114Z,26.80
2019-01-23T02:02:21.040Z,27.20
2019-01-23T02:03:20.968Z,26.50
2019-01-23T02:04:20.896Z,27.20
2019-01-23T02:05:20.826Z,26.00
2019-01-23T02:06:20.757Z,26.70
2019-01-23T02:07:20.684Z,27.20
2019-01-23T02:08:20.613Z,26.80
2019-01-23T02:09:20.542Z,27.40
2019-01-23T02:10:20.472Z,26.50
2019-01-23T02:11:20.397Z,26.30
2019-01-23T02:12:20.330Z,27.90
2019-01-23T02:13:20.259Z,27.80
2019-01-23T02:14:20.190Z,26.60
2019-01-23T02:15:20.115Z,26.90
2019-01-23T02:16:20.046Z,27.00
2019-01-23T02:17:19.974Z,27.10
2019-01-23T02:18:19.905Z,27.30
2019-01-23T02:19:19.837Z,27.20
2019-01-23T02:20:19.761Z,28.00
2019-01-23T02:21:19.691Z,26.50
2019-01-23T02:22:19.621Z,26.40
2019-01-23T02:23:19.545Z,27.60
2019-01-23T02:24:19.481Z,27.00
2019-01-23T02:25:19.406Z,25.40
2019-01-23T02:26:19.340Z,26.00
2019-01-23T02:27:19.274Z,26.70
2019-01-23T02:28:19.200Z,27.50
2019-01-23T02:29:19.124Z,25.90
2019-01-23T02:30:19.054Z,25.70
2019-01-23T02:31:18.990Z,25.30
2019-01-23T02:32:18.922Z,25.10
2019-01-23T02:33:18.842Z,25.20
2019-01-23T02:34:18.773Z,24.00
2019-01-23T02:35:18.700Z,23.00
2019-01-23T02:36:18.640Z,23.40
2019-01-23T02:37:18.562Z,24.40
2019-01-23T02:38:18.490Z,23.80
2019-01-23T02:39:18.416Z,24.00
2019-01-23T02:40:18.343Z,23.10
2019-01-23T02:41:18.280Z,24.30
2019-01-23T02:42:18.206Z,23.90
2019-01-23T02:43:18.135Z,23.10
2019-01-23T02:44:18.060Z,24.30
2019-01-23T02:45:17.989Z,22.80
2019-01-23T02:46:17.916Z,25.00
2019-01-23T02:47:17.849Z,23.80
2019-01-23T02:48:17.780Z,23.00
2019-01-23T02:49:17.709Z,22.90
2019-01-23T02:50:17.633Z,25.20
2019-01-23T02:51:17.565Z,24.50
2019-01-23T02:52:17.493Z,24.60
2019-01-23T02:53:17.425Z,23.50
2019-01-23T02:54:17.352Z,24.10
2019-01-23T02:55:17.284Z,23.10
2019-01-23T02:56:17.211Z,22.40
2019-01-23T02:57:17.139Z,22.70
2019-01-23T02:58:17.070Z,22.90
2019-01-23T02:59:17.541Z,22.20
2019-01-23T03:00:16.927Z,21.70
2019-01-23T03:01:16.863Z,22.40
2019-01-23T03:02:16.784Z,22.20
2019-01-23T03:03:16.717Z,22.80
2019-01-23T03:04:16.650Z,21.40
2019-01-23T03:05:16.572Z,21.40
2019-01-23T03:06:16.501Z,22.80
2019-01-23T03:07:16.436Z,22.60
2019-01-23T03:08:16.359Z,22.60
2019-01-23T03:09:16.288Z,23.40
2019-01-23T03:10:16.217Z,23.50
2019-01-23T03:11:16.148Z,23.00
2019-01-23T03:12:16.074Z,25.10
2019-01-23T03:13:16.005Z,24.20
2019-01-23T03:14:15.934Z,24.00
2019-01-23T03:15:15.859Z,24.80
2019-01-23T03:16:15.794Z,23.00
2019-01-23T03:17:15.723Z,23.40
2019-01-23T03:18:15.649Z,25.30
2019-01-23T03:19:15.582Z,25.20
2019-01-23T03:20:15.507Z,25.00
2019-01-23T03:21:15.436Z,25.80
2019-01-23T03:22:15.370Z,24.80
2019-01-23T03:23:15.296Z,25.10
2019-01-23T03:24:15.223Z,25.80
2019-01-23T03:25:15.168Z,24.60
2019-01-23T03:26:15.096Z,24.80
2019-01-23T03:27:15.013Z,23.60
2019-01-23T03:28:14.938Z,23.80
2019-01-23T03:29:14.870Z,24.50
2019-01-23T03:30:14.817Z,24.60
2019-01-23T03:31:14.727Z,23.90
2019-01-23T03:32:14.658Z,24.10
2019-01-23T03:33:14.587Z,24.60
2019-01-23T03:34:14.520Z,25.30
2019-01-23T03:35:14.444Z,23.00
2019-01-23T03:36:14.374Z,24.10
2019-01-23T03:37:14.301Z,23.70
2019-01-23T03:38:14.230Z,23.10
2019-01-23T03:39:14.155Z,23.90
2019-01-23T03:40:14.084Z,24.20
2019-01-23T03:41:14.015Z,23.50
2019-01-23T03:42:13.944Z,23.90
2019-01-23T03:43:13.872Z,24.20
2019-01-23T03:44:13.802Z,25.00
2019-01-23T03:45:13.732Z,25.40
2019-01-23T03:46:13.679Z,27.50
2019-01-23T03:47:13.587Z,24.60
2019-01-23T03:48:13.518Z,23.30
2019-01-23T03:49:13.487Z,22.80
2019-01-23T03:50:13.373Z,23.20
2019-01-23T03:51:13.305Z,23.80
2019-01-23T03:52:13.232Z,24.80
2019-01-23T03:53:13.163Z,25.10
2019-01-23T03:54:13.096Z,24.50
2019-01-23T03:55:13.026Z,24.70
2019-01-23T03:56:12.950Z,23.80
2019-01-23T03:57:12.877Z,25.20
2019-01-23T03:58:12.809Z,25.00
2019-01-23T03:59:12.742Z,23.50
2019-01-23T04:00:12.671Z,25.40
2019-01-23T04:01:12.596Z,25.10
2019-01-23T04:02:12.524Z,23.80
2019-01-23T04:03:12.453Z,24.80
2019-01-23T04:04:12.383Z,25.00
2019-01-23T04:05:12.315Z,26.30
2019-01-23T04:06:12.239Z,24.30
2019-01-23T04:07:12.169Z,26.10
2019-01-23T04:08:12.100Z,25.80
2019-01-23T04:09:12.025Z,24.50
2019-01-23T04:10:11.955Z,24.80
2019-01-23T04:11:11.886Z,25.10
2019-01-23T04:12:11.814Z,26.10
2019-01-23T04:13:11.742Z,24.00
2019-01-23T04:14:11.680Z,25.50
2019-01-23T04:15:11.601Z,25.20
2019-01-23T04:16:11.535Z,25.40
2019-01-23T04:17:11.458Z,25.50
2019-01-23T04:18:11.387Z,25.30
2019-01-23T04:19:11.316Z,24.40
2019-01-23T04:20:11.245Z,25.70
2019-01-23T04:21:11.172Z,25.30
2019-01-23T04:22:11.131Z,25.90
2019-01-23T04:23:11.034Z,25.20
2019-01-23T04:24:10.958Z,25.90
2019-01-23T04:25:10.891Z,26.80
2019-01-23T04:26:10.821Z,27.40
2019-01-23T04:27:10.753Z,24.70
2019-01-23T04:28:10.680Z,25.70
2019-01-23T04:29:10.610Z,27.10
2019-01-23T04:30:10.534Z,25.70
2019-01-23T04:31:10.468Z,26.50
2019-01-23T04:32:10.399Z,25.50
2019-01-23T04:33:10.336Z,25.60
2019-01-23T04:34:10.250Z,26.70
2019-01-23T04:35:10.192Z,26.80
2019-01-23T04:36:10.113Z,25.70
2019-01-23T04:37:10.039Z,26.10
2019-01-23T04:38:09.970Z,25.20
2019-01-23T04:39:09.896Z,24.50
2019-01-23T04:40:09.828Z,25.90
2019-01-23T04:41:09.755Z,24.80
2019-01-23T04:42:09.683Z,25.60
2019-01-23T04:43:09.617Z,25.50
2019-01-23T04:44:09.546Z,26.00
2019-01-23T04:45:09.470Z,25.20
2019-01-23T04:46:09.402Z,24.90
2019-01-23T04:47:09.330Z,26.00
2019-01-23T04:48:09.266Z,25.80
2019-01-23T04:49:09.186Z,26.20
2019-01-23T04:50:09.114Z,26.50
2019-01-23T04:51:09.046Z,24.80
2019-01-23T04:52:08.972Z,24.50
2019-01-23T04:53:08.905Z,25.50
2019-01-23T04:54:08.835Z,26.40
2019-01-23T04:55:08.759Z,27.00
2019-01-23T04:56:08.689Z,26.70
2019-01-23T04:57:08.618Z,26.00
2019-01-23T04:58:08.560Z,26.50
2019-01-23T04:59:08.475Z,25.00
2019-01-23T05:00:08.413Z,26.50
2019-01-23T05:01:08.339Z,26.20
2019-01-23T05:02:08.264Z,25.40
2019-01-23T05:03:08.192Z,25.20
2019-01-23T05:04:08.134Z,24.90
2019-01-23T05:05:08.056Z,25.80
2019-01-23T05:06:07.983Z,25.70
2019-01-23T05:07:07.918Z,26.30
2019-01-23T05:08:07.838Z,25.50
2019-01-23T05:09:07.766Z,26.30
2019-01-23T05:10:07.694Z,26.10
2019-01-23T05:11:07.624Z,26.20
2019-01-23T05:12:07.551Z,26.20
2019-01-23T05:13:07.488Z,24.80
2019-01-23T05:14:07.411Z,25.90
2019-01-23T05:15:07.340Z,24.60
2019-01-23T05:16:07.268Z,26.30
2019-01-23T05:17:07.197Z,24.70
2019-01-23T05:18:07.132Z,24.60
2019-01-23T05:19:07.056Z,25.80
2019-01-23T05:20:06.985Z,25.90
2019-01-23T05:21:06.913Z,25.50
2019-01-23T05:22:06.858Z,24.10
2019-01-23T05:23:06.771Z,25.90
2019-01-23T05:24:06.700Z,24.70
2019-01-23T05:25:06.627Z,24.80
2019-01-23T05:26:06.560Z,25.40
2019-01-23T05:27:06.486Z,25.00
2019-01-23T05:28:06.413Z,25.40
2019-01-23T05:29:06.352Z,24.70
2019-01-23T05:30:06.280Z,25.60
2019-01-23T05:31:06.208Z,24.60
2019-01-23T05:32:06.132Z,25.10
2019-01-23T05:33:06.062Z,24.60
2019-01-23T05:34:05.989Z,25.20
2019-01-23T05:35:05.922Z,25.00
2019-01-23T05:36:05.848Z,23.80
2019-01-23T05:37:05.771Z,24.30
2019-01-23T05:38:05.706Z,25.30
2019-01-23T05:39:05.638Z,24.60
2019-01-23T05:40:05.562Z,25.70
2019-01-23T05:41:05.492Z,25.60
2019-01-23T05:42:05.420Z,24.80
2019-01-23T05:43:05.349Z,25.30
2019-01-23T05:44:05.278Z,25.00
2019-01-23T05:45:05.212Z,25.90
2019-01-23T05:46:05.140Z,26.70
2019-01-23T05:47:05.076Z,25.40
2019-01-23T05:48:04.992Z,26.80
2019-01-23T05:49:04.923Z,25.80
2019-01-23T05:50:04.862Z,26.00
2019-01-23T05:51:04.783Z,26.00
2019-01-23T05:52:04.715Z,25.50
2019-01-23T05:53:04.644Z,25.30
2019-01-23T05:54:04.570Z,25.80
2019-01-23T05:55:04.501Z,25.50
2019-01-23T05:56:04.428Z,25.60
2019-01-23T05:57:04.358Z,25.80
2019-01-23T05:58:04.290Z,27.50
2019-01-23T05:59:04.217Z,26.20
2019-01-23T06:00:04.142Z,26.70
2019-01-23T06:01:04.076Z,26.50
2019-01-23T06:02:04.006Z,25.80
2019-01-23T06:03:03.933Z,25.60
2019-01-23T06:04:03.859Z,26.10
2019-01-23T06:05:03.792Z,26.60
2019-01-23T06:06:03.715Z,25.70
2019-01-23T06:07:03.644Z,26.90
2019-01-23T06:08:03.581Z,27.20
2019-01-23T06:09:03.499Z,25.40
2019-01-23T06:10:03.429Z,26.40
2019-01-23T06:11:03.358Z,27.60
2019-01-23T06:12:03.289Z,27.20
2019-01-23T06:13:03.214Z,26.10
2019-01-23T06:14:03.147Z,26.50
2019-01-23T06:15:03.091Z,26.60
2019-01-23T06:16:03.009Z,26.70
2019-01-23T06:17:02.935Z,25.10
2019-01-23T06:18:02.862Z,27.60
2019-01-23T06:19:02.853Z,28.00
2019-01-23T06:20:02.722Z,26.00
2019-01-23T06:21:02.648Z,28.30
2019-01-23T06:22:02.579Z,27.60
2019-01-23T06:23:02.510Z,28.50
2019-01-23T06:24:02.438Z,27.80
2019-01-23T06:25:02.367Z,26.50
2019-01-23T06:26:02.315Z,25.60
2019-01-23T06:27:02.225Z,24.20
2019-01-23T06:28:02.152Z,25.70
2019-01-23T06:29:02.082Z,25.10
2019-01-23T06:30:02.009Z,26.70
2019-01-23T06:31:01.940Z,26.90
2019-01-23T06:32:01.866Z,25.20
2019-01-23T06:33:01.802Z,26.00
2019-01-23T06:34:01.729Z,24.80
2019-01-23T06:35:01.655Z,24.40
2019-01-23T06:36:01.582Z,25.70
2019-01-23T06:37:01.512Z,26.50
2019-01-23T06:38:01.443Z,25.10
2019-01-23T06:39:01.371Z,24.80
2019-01-23T06:40:01.300Z,25.40
2019-01-23T06:41:01.231Z,26.00
2019-01-23T06:42:01.158Z,26.60
2019-01-23T06:43:01.091Z,25.30
2019-01-23T06:44:01.018Z,25.90
2019-01-23T06:45:00.947Z,27.50
2019-01-23T06:46:00.882Z,26.10
2019-01-23T06:47:00.808Z,26.10
2019-01-23T06:48:00.735Z,26.10
2019-01-23T06:49:00.664Z,25.90
2019-01-23T06:50:00.589Z,26.10
2019-01-23T06:51:00.524Z,27.20
2019-01-23T06:52:00.450Z,25.70
2019-01-23T06:53:00.381Z,25.80
2019-01-23T06:54:00.307Z,25.70
2019-01-23T06:55:00.244Z,24.80
2019-01-23T06:56:00.165Z,24.70
2019-01-23T06:57:00.098Z,25.30
2019-01-23T06:58:00.023Z,25.70
2019-01-23T06:58:59.954Z,26.20
2019-01-23T06:59:59.882Z,24.90
2019-01-23T07:01:00.081Z,25.80
2019-01-23T07:01:59.739Z,25.90
2019-01-23T07:02:59.670Z,26.70
2019-01-23T07:03:59.601Z,26.50
2019-01-23T07:04:59.526Z,25.30
2019-01-23T07:05:59.455Z,25.40
2019-01-23T07:06:59.388Z,24.40
2019-01-23T07:07:59.317Z,26.00
2019-01-23T07:08:59.244Z,25.80
2019-01-23T07:09:59.178Z,25.50
2019-01-23T07:10:59.104Z,26.10
2019-01-23T07:11:59.036Z,24.80
2019-01-23T07:12:58.961Z,24.70
2019-01-23T07:13:58.892Z,26.90
2019-01-23T07:14:58.820Z,25.50
2019-01-23T07:15:58.748Z,26.50
2019-01-23T07:16:58.679Z,25.90
2019-01-23T07:17:58.633Z,25.20
2019-01-23T07:18:58.536Z,25.30
2019-01-23T07:19:58.465Z,25.00
2019-01-23T07:20:58.396Z,25.50
2019-01-23T07:21:58.323Z,25.50
2019-01-23T07:22:58.253Z,25.90
2019-01-23T07:23:58.183Z,25.70
2019-01-23T07:24:58.116Z,26.60
2019-01-23T07:25:58.041Z,26.40
2019-01-23T07:26:57.967Z,25.40
2019-01-23T07:27:57.905Z,25.20
2019-01-23T07:28:57.823Z,26.80
2019-01-23T07:29:57.759Z,25.90
2019-01-23T07:30:57.688Z,26.30
2019-01-23T07:31:57.614Z,26.50
2019-01-23T07:32:57.546Z,25.60
2019-01-23T07:33:57.473Z,26.90
2019-01-23T07:34:57.404Z,26.20
2019-01-23T07:35:57.334Z,26.10
2019-01-23T07:36:57.259Z,25.80
2019-01-23T07:37:57.191Z,24.80
2019-01-23T07:38:57.129Z,24.90
2019-01-23T07:39:57.050Z,25.00
2019-01-23T07:40:56.979Z,24.50
2019-01-23T07:41:57.110Z,26.10
2019-01-23T07:42:56.837Z,24.40
2019-01-23T07:43:56.771Z,24.80
2019-01-23T07:44:56.697Z,24.50
2019-01-23T07:45:56.631Z,23.80
2019-01-23T07:46:56.559Z,26.20
2019-01-23T07:47:56.485Z,26.00
2019-01-23T07:48:56.413Z,26.10
2019-01-23T07:49:56.343Z,27.20
2019-01-23T07:50:56.274Z,25.00
2019-01-23T07:51:56.205Z,25.70
2019-01-23T07:52:56.132Z,25.20
2019-01-23T07:53:56.061Z,25.30
2019-01-23T07:54:55.990Z,26.50
2019-01-23T07:55:55.919Z,24.90
2019-01-23T07:56:55.848Z,25.80
2019-01-23T07:57:55.776Z,27.50
2019-01-23T07:58:55.708Z,25.40
2019-01-23T07:59:55.636Z,25.00
2019-01-23T08:00:55.570Z,26.20
2019-01-23T08:01:55.495Z,25.50
2019-01-23T08:02:55.429Z,26.80
2019-01-23T08:03:55.354Z,25.80
2019-01-23T08:04:55.284Z,25.00
2019-01-23T08:05:55.214Z,26.00
2019-01-23T08:06:55.139Z,26.50
2019-01-23T08:07:55.071Z,25.30
2019-01-23T08:08:55.003Z,25.30
2019-01-23T08:09:54.931Z,26.00
2019-01-23T08:10:54.859Z,24.90
2019-01-23T08:11:54.788Z,24.30
2019-01-23T08:12:54.719Z,24.40
2019-01-23T08:13:54.672Z,24.70
2019-01-23T08:14:54.577Z,22.90
2019-01-23T08:15:54.504Z,25.00
2019-01-23T08:16:54.440Z,24.80
2019-01-23T08:17:54.364Z,24.60
2019-01-23T08:18:54.304Z,23.60
2019-01-23T08:19:54.251Z,23.30
2019-01-23T08:20:54.154Z,25.10
2019-01-23T08:21:54.080Z,24.10
2019-01-23T08:22:54.012Z,25.20
2019-01-23T08:23:53.945Z,25.30
2019-01-23T08:24:53.871Z,24.40
2019-01-23T08:25:53.799Z,25.00
2019-01-23T08:26:53.732Z,24.10
2019-01-23T08:27:53.663Z,24.90
2019-01-23T08:28:53.587Z,24.40
2019-01-23T08:29:53.517Z,24.30
2019-01-23T08:30:53.453Z,24.40
2019-01-23T08:31:53.375Z,24.70
2019-01-23T08:32:53.306Z,24.50
2019-01-23T08:33:53.233Z,24.80
2019-01-23T08:34:53.168Z,24.30
2019-01-23T08:35:53.093Z,25.90
2019-01-23T08:36:53.023Z,24.60
2019-01-23T08:37:52.965Z,25.80
2019-01-23T08:38:52.882Z,24.80
2019-01-23T08:39:52.811Z,23.30
2019-01-23T08:40:52.741Z,27.10
2019-01-23T08:41:52.669Z,24.40
2019-01-23T08:42:52.601Z,24.60
2019-01-23T08:43:52.528Z,23.60
2019-01-23T08:44:52.460Z,23.60
2019-01-23T08:45:52.387Z,24.10
2019-01-23T08:46:52.314Z,25.20
2019-01-23T08:47:52.249Z,24.40
2019-01-23T08:48:52.180Z,24.20
2019-01-23T08:49:52.106Z,25.70
2019-01-23T08:50:52.038Z,24.40
2019-01-23T08:51:51.965Z,25.60
2019-01-23T08:52:51.895Z,25.60
2019-01-23T08:53:51.827Z,25.00
2019-01-23T08:54:51.752Z,25.90
2019-01-23T08:55:53.655Z,23.80
2019-01-23T08:56:51.614Z,24.30
2019-01-23T08:57:51.544Z,23.20
2019-01-23T08:58:51.473Z,24.00
2019-01-23T08:59:51.402Z,22.50
2019-01-23T09:00:51.349Z,22.90
2019-01-23T09:01:51.259Z,24.10
2019-01-23T09:02:51.192Z,23.20
2019-01-23T09:03:51.120Z,22.90
2019-01-23T09:04:51.049Z,23.50
2019-01-23T09:05:50.977Z,22.70
2019-01-23T09:06:50.908Z,23.30
2019-01-23T09:07:50.837Z,24.10
2019-01-23T09:08:50.766Z,26.30
2019-01-23T09:09:50.695Z,26.50
2019-01-23T09:10:50.626Z,25.50
2019-01-23T09:11:50.573Z,25.90
2019-01-23T09:12:50.484Z,24.10
2019-01-23T09:13:50.414Z,23.30
2019-01-23T09:14:50.344Z,21.90
2019-01-23T09:15:50.272Z,22.00
2019-01-23T09:16:50.207Z,26.90
2019-01-23T09:17:50.136Z,25.00
2019-01-23T09:18:50.066Z,23.80
2019-01-23T09:19:49.992Z,24.50
2019-01-23T09:20:49.920Z,24.40
2019-01-23T09:21:49.851Z,23.50
2019-01-23T09:22:49.810Z,26.20
2019-01-23T09:23:49.714Z,24.90
2019-01-23T09:24:49.638Z,24.20
2019-01-23T09:25:51.516Z,24.40
2019-01-23T09:26:49.499Z,24.10
2019-01-23T09:27:49.429Z,23.20
2019-01-23T09:28:49.357Z,22.20
2019-01-23T09:29:49.286Z,22.20
2019-01-23T09:30:52.966Z,24.00
2019-01-23T09:31:49.144Z,24.60
2019-01-23T09:32:49.075Z,22.90
2019-01-23T09:33:49.002Z,23.20
2019-01-23T09:34:48.938Z,23.00
2019-01-23T09:35:48.860Z,23.30
2019-01-23T09:36:48.793Z,22.80
2019-01-23T09:37:48.724Z,22.60
2019-01-23T09:38:48.653Z,21.80
2019-01-23T09:39:48.579Z,22.30
2019-01-23T09:40:48.511Z,22.50
2019-01-23T09:41:48.443Z,21.60
2019-01-23T09:42:48.371Z,21.20
2019-01-23T09:43:48.301Z,21.20
2019-01-23T09:44:48.232Z,24.50
2019-01-23T09:45:48.166Z,25.20
2019-01-23T09:46:48.091Z,25.40
2019-01-23T09:47:48.020Z,26.20
2019-01-23T09:48:47.949Z,24.70
2019-01-23T09:49:47.881Z,25.00
2019-01-23T09:50:47.807Z,26.40
2019-01-23T09:51:47.735Z,27.90
2019-01-23T09:52:47.666Z,27.50
2019-01-23T09:53:47.599Z,29.00
2019-01-23T09:54:47.529Z,29.20
2019-01-23T09:55:47.455Z,26.90
2019-01-23T09:56:47.388Z,30.20
2019-01-23T09:57:47.314Z,29.20
2019-01-23T09:58:47.246Z,28.00
2019-01-23T09:59:47.174Z,27.90
2019-01-23T10:00:47.104Z,28.90
2019-01-23T10:01:47.029Z,29.30
2019-01-23T10:02:46.961Z,28.30
2019-01-23T10:03:46.894Z,28.20
2019-01-23T10:04:46.823Z,29.90
2019-01-23T10:05:46.752Z,28.80
2019-01-23T10:06:46.686Z,28.90
2019-01-23T10:07:46.607Z,27.40
2019-01-23T10:08:46.538Z,29.20
2019-01-23T10:09:46.466Z,29.10
2019-01-23T10:10:46.400Z,28.50
2019-01-23T10:11:46.327Z,27.80
2019-01-23T10:12:46.257Z,29.90
2019-01-23T10:13:46.287Z,29.10
2019-01-23T10:14:46.116Z,29.10
2019-01-23T10:15:46.047Z,29.70
2019-01-23T10:16:46.026Z,30.00
2019-01-23T10:17:45.900Z,29.90
2019-01-23T10:18:45.835Z,28.80
2019-01-23T10:19:45.762Z,28.90
2019-01-23T10:20:45.692Z,29.90
2019-01-23T10:21:45.620Z,29.10
2019-01-23T10:22:45.552Z,29.80
2019-01-23T10:23:45.481Z,28.50
2019-01-23T10:24:45.409Z,28.10
2019-01-23T10:25:45.338Z,29.70
2019-01-23T10:26:45.269Z,28.80
2019-01-23T10:27:45.197Z,28.40
2019-01-23T10:28:45.125Z,28.80
2019-01-23T10:29:45.057Z,29.80
2019-01-23T10:30:44.987Z,29.00
2019-01-23T10:31:44.920Z,27.90
2019-01-23T10:32:44.846Z,29.20
2019-01-23T10:33:44.776Z,29.60
2019-01-23T10:34:44.707Z,27.10
2019-01-23T10:35:44.638Z,29.10
2019-01-23T10:36:44.560Z,27.00
2019-01-23T10:37:44.492Z,26.70
2019-01-23T10:38:44.423Z,26.90
2019-01-23T10:39:44.350Z,28.00
2019-01-23T10:40:44.279Z,30.00
2019-01-23T10:41:44.214Z,28.50
2019-01-23T10:42:44.138Z,28.50
2019-01-23T10:43:44.068Z,29.80
2019-01-23T10:44:43.998Z,28.90
2019-01-23T10:45:43.927Z,28.80
2019-01-23T10:46:43.860Z,28.30
2019-01-23T10:47:43.786Z,25.80
2019-01-23T10:48:43.714Z,26.60
2019-01-23T10:49:43.665Z,26.90
2019-01-23T10:50:43.574Z,27.20
2019-01-23T10:51:43.504Z,27.10
2019-01-23T10:52:43.431Z,27.40
2019-01-23T10:53:43.363Z,26.90
2019-01-23T10:54:43.293Z,26.00
2019-01-23T10:55:43.221Z,26.70
2019-01-23T10:56:43.151Z,28.50
2019-01-23T10:57:43.080Z,26.90
2019-01-23T10:58:43.010Z,26.00
2019-01-23T10:59:42.939Z,28.20
2019-01-23T11:00:42.870Z,25.80
2019-01-23T11:01:42.798Z,27.20
2019-01-23T11:02:42.727Z,27.80
2019-01-23T11:03:42.658Z,26.80
2019-01-23T11:04:42.590Z,27.40
2019-01-23T11:05:42.538Z,27.50
2019-01-23T11:06:42.445Z,28.40
2019-01-23T11:07:42.374Z,26.60
2019-01-23T11:08:42.303Z,25.90
2019-01-23T11:09:42.233Z,26.10
2019-01-23T11:10:42.163Z,29.30
2019-01-23T11:11:42.139Z,27.50
2019-01-23T11:12:42.021Z,26.90
2019-01-23T11:13:41.950Z,26.40
2019-01-23T11:14:41.889Z,28.00
2019-01-23T11:15:41.818Z,27.90
2019-01-23T11:16:41.764Z,26.30
2019-01-23T11:17:41.671Z,27.90
2019-01-23T11:18:41.597Z,26.70
2019-01-23T11:19:41.527Z,25.70
2019-01-23T11:20:41.455Z,27.30
2019-01-23T11:21:41.389Z,27.60
2019-01-23T11:22:41.314Z,26.30
2019-01-23T11:23:41.247Z,27.10
2019-01-23T11:24:41.175Z,26.50
2019-01-23T11:25:41.102Z,27.50
2019-01-23T11:26:41.027Z,27.90
2019-01-23T11:27:40.959Z,27.70
2019-01-23T11:28:40.893Z,26.80
2019-01-23T11:29:40.822Z,27.70
2019-01-23T11:30:40.745Z,25.80
2019-01-23T11:31:40.678Z,26.30
2019-01-23T11:32:40.605Z,27.50
2019-01-23T11:33:40.537Z,26.90
2019-01-23T11:34:40.462Z,27.00
2019-01-23T11:35:40.389Z,26.00
2019-01-23T11:36:40.324Z,27.30
2019-01-23T11:37:40.251Z,26.70
2019-01-23T11:38:40.181Z,26.10
2019-01-23T11:39:40.111Z,25.70
2019-01-23T11:40:40.042Z,27.00
2019-01-23T11:41:39.970Z,25.90
2019-01-23T11:42:39.895Z,25.80
2019-01-23T11:43:39.827Z,25.80
2019-01-23T11:44:39.757Z,26.40
2019-01-23T11:45:39.685Z,25.60
2019-01-23T11:46:39.615Z,24.80
2019-01-23T11:47:39.544Z,24.20
2019-01-23T11:48:39.476Z,25.20
2019-01-23T11:49:39.404Z,25.60
2019-01-23T11:50:39.335Z,26.30
2019-01-23T11:51:39.274Z,25.90
2019-01-23T11:52:39.192Z,26.10
2019-01-23T11:53:39.125Z,26.30
2019-01-23T11:54:39.052Z,24.40
2019-01-23T11:55:38.981Z,24.90
2019-01-23T11:56:38.909Z,25.80
2019-01-23T11:57:38.839Z,24.20
2019-01-23T11:58:38.771Z,26.00
2019-01-23T11:59:38.696Z,24.60
2019-01-23T12:00:38.631Z,25.60
2019-01-23T12:01:38.557Z,24.90
2019-01-23T12:02:38.485Z,25.10
2019-01-23T12:03:38.420Z,24.80
2019-01-23T12:04:38.345Z,25.40
2019-01-23T12:05:38.273Z,25.50
2019-01-23T12:06:38.200Z,23.90
2019-01-23T12:07:38.136Z,24.40
2019-01-23T12:08:38.058Z,25.50
2019-01-23T12:09:37.990Z,23.60
2019-01-23T12:10:37.925Z,24.30
2019-01-23T12:11:37.847Z,24.20
2019-01-23T12:12:37.777Z,23.90
2019-01-23T12:13:37.707Z,24.70
2019-01-23T12:14:37.637Z,24.30
2019-01-23T12:15:40.912Z,26.00
2019-01-23T12:16:37.494Z,24.30
2019-01-23T12:17:37.424Z,24.00
2019-01-23T12:18:37.354Z,23.80
2019-01-23T12:19:37.280Z,23.40
2019-01-23T12:20:37.211Z,23.90
2019-01-23T12:21:37.140Z,24.00
2019-01-23T12:22:37.069Z,23.20
2019-01-23T12:23:36.999Z,23.50
2019-01-23T12:24:36.932Z,25.00
2019-01-23T12:25:36.858Z,24.50
2019-01-23T12:26:36.789Z,24.80
2019-01-23T12:27:36.719Z,24.10
2019-01-23T12:28:36.646Z,25.70
2019-01-23T12:29:36.584Z,24.50
2019-01-23T12:30:36.504Z,24.40
2019-01-23T12:31:36.436Z,23.60
2019-01-23T12:32:36.365Z,23.10
2019-01-23T12:33:36.294Z,24.40
2019-01-23T12:34:36.224Z,24.70
2019-01-23T12:35:36.160Z,24.10
2019-01-23T12:36:36.081Z,23.50
2019-01-23T12:37:36.014Z,24.40
2019-01-23T12:38:35.952Z,23.70
2019-01-23T12:39:35.873Z,24.90
2019-01-23T12:40:35.801Z,24.70
2019-01-23T12:41:35.731Z,24.50
2019-01-23T12:42:35.661Z,24.90
2019-01-23T12:43:35.586Z,25.90
2019-01-23T12:44:35.518Z,24.40
2019-01-23T12:45:35.450Z,24.50
2019-01-23T12:46:35.375Z,25.20
2019-01-23T12:47:35.303Z,23.90
2019-01-23T12:48:35.232Z,25.50
2019-01-23T12:49:35.180Z,25.00
2019-01-23T12:50:35.094Z,23.90
2019-01-23T12:51:35.023Z,25.20